createdAt,value
2019-03-16T00:01:58.356Z,10.03
2019-03-16T00:04:29.167Z,9.27
2019-03-16T00:06:59.948Z,10.53
2019-03-16T00:09:30.712Z,9.50
2019-03-16T00:12:01.594Z,9.50
2019-03-16T00:14:32.603Z,12.43
2019-03-16T00:17:03.600Z,10.13
2019-03-16T00:19:34.551Z,10.00
2019-03-16T00:22:05.902Z,9.07
2019-03-16T00:24:36.592Z,9.83
2019-03-16T00:27:07.832Z,9.93
2019-03-16T00:29:38.523Z,11.33
2019-03-16T00:32:13.614Z,10.80
2019-03-16T00:34:41.702Z,11.00
2019-03-16T00:37:13.183Z,12.37
2019-03-16T00:39:43.866Z,12.40
2019-03-16T00:42:20.425Z,12.80
2019-03-16T00:44:51.121Z,13.43
2019-03-16T00:47:21.845Z,12.67
2019-03-16T00:49:52.527Z,12.97
2019-03-16T00:52:23.379Z,13.80
2019-03-16T00:54:53.987Z,15.07
2019-03-16T00:57:24.939Z,14.60
2019-03-16T00:59:55.689Z,14.00
2019-03-16T01:02:27.734Z,14.00
2019-03-16T01:04:58.558Z,14.40
2019-03-16T01:07:29.220Z,13.23
2019-03-16T01:10:00.027Z,13.10
2019-03-16T01:12:30.773Z,14.00
2019-03-16T01:15:01.508Z,14.07
2019-03-16T01:17:32.584Z,13.50
2019-03-16T01:20:03.384Z,12.83
2019-03-16T01:22:34.113Z,16.90
2019-03-16T01:25:05.130Z,14.37
2019-03-16T01:27:35.953Z,14.40
2019-03-16T01:30:07.982Z,16.63
2019-03-16T01:32:40.938Z,26.87
2019-03-16T01:35:11.639Z,23.83
2019-03-16T01:37:42.383Z,25.57
2019-03-16T01:40:13.713Z,19.13
2019-03-16T01:42:44.754Z,20.10
2019-03-16T01:45:15.528Z,18.47
2019-03-16T01:47:46.318Z,18.87
2019-03-16T01:50:17.346Z,19.07
2019-03-16T01:52:51.967Z,22.53
2019-03-16T01:55:37.470Z,17.47
2019-03-16T01:58:08.433Z,18.03
2019-03-16T02:00:39.390Z,18.40
2019-03-16T02:03:10.056Z,19.07
2019-03-16T02:05:40.794Z,16.57
2019-03-16T02:08:11.656Z,18.43
2019-03-16T02:10:42.384Z,18.23
2019-03-16T02:13:13.695Z,18.90
2019-03-16T02:15:44.425Z,18.63
2019-03-16T02:18:15.186Z,17.83
2019-03-16T02:20:45.788Z,19.80
2019-03-16T02:23:16.723Z,19.07
2019-03-16T02:25:47.365Z,18.90
2019-03-16T02:28:18.129Z,17.20
2019-03-16T02:30:48.825Z,20.63
2019-03-16T02:33:19.488Z,29.10
2019-03-16T02:35:50.317Z,17.67
2019-03-16T02:38:21.181Z,23.70
2019-03-16T02:40:51.868Z,20.23
2019-03-16T02:43:22.561Z,21.17
2019-03-16T02:45:54.517Z,18.67
2019-03-16T02:48:25.189Z,20.00
2019-03-16T02:50:55.857Z,20.13
2019-03-16T02:53:26.649Z,20.70
2019-03-16T02:55:57.300Z,18.97
2019-03-16T02:58:31.517Z,18.50
2019-03-16T03:01:03.433Z,18.53
2019-03-16T03:03:34.129Z,18.50
2019-03-16T03:06:04.906Z,17.53
2019-03-16T03:08:35.591Z,18.70
2019-03-16T03:11:06.517Z,17.80
2019-03-16T03:13:37.173Z,17.07
2019-03-16T03:16:07.818Z,15.87
2019-03-16T03:18:40.121Z,17.17
2019-03-16T03:21:10.817Z,15.87
2019-03-16T03:23:41.555Z,18.10
2019-03-16T03:26:12.197Z,18.10
2019-03-16T03:28:42.922Z,18.80
2019-03-16T03:31:13.572Z,17.70
2019-03-16T03:33:58.992Z,22.63
2019-03-16T03:36:16.824Z,20.90
2019-03-16T03:38:47.504Z,22.60
2019-03-16T03:41:18.161Z,22.70
2019-03-16T03:43:49.953Z,23.00
2019-03-16T03:46:20.575Z,23.13
2019-03-16T03:48:51.237Z,22.90
2019-03-16T03:51:21.893Z,23.63
2019-03-16T03:53:52.745Z,22.53
2019-03-16T03:56:23.353Z,21.60
2019-03-16T03:58:54.039Z,23.77
2019-03-16T04:01:26.380Z,27.23
2019-03-16T04:04:13.775Z,25.97
2019-03-16T04:06:29.455Z,23.40
2019-03-16T04:09:00.199Z,25.67
2019-03-16T04:11:30.885Z,26.40
2019-03-16T04:14:01.616Z,25.77
2019-03-16T04:16:32.282Z,25.83
2019-03-16T04:19:03.134Z,26.53
2019-03-16T04:21:35.231Z,24.80
2019-03-16T04:24:06.195Z,26.17
2019-03-16T04:26:36.869Z,26.60
2019-03-16T04:29:07.685Z,23.97
2019-03-16T04:31:38.332Z,23.63
2019-03-16T04:34:09.258Z,24.77
2019-03-16T04:36:39.910Z,25.77
2019-03-16T04:39:10.663Z,24.57
2019-03-16T04:41:41.453Z,24.93
2019-03-16T04:44:12.231Z,23.87
2019-03-16T04:46:42.925Z,26.17
2019-03-16T04:49:13.919Z,25.80
2019-03-16T04:51:44.593Z,26.40
2019-03-16T04:54:19.323Z,26.30
2019-03-16T04:56:50.100Z,25.80
2019-03-16T04:59:21.077Z,26.47
2019-03-16T05:01:51.839Z,24.20
2019-03-16T05:04:22.610Z,26.33
2019-03-16T05:06:53.295Z,24.80
2019-03-16T05:09:24.038Z,24.60
2019-03-16T05:11:54.686Z,23.30
2019-03-16T05:14:25.492Z,23.30
2019-03-16T05:16:56.251Z,26.20
2019-03-16T05:19:28.011Z,26.37
2019-03-16T05:21:58.627Z,25.93
2019-03-16T05:24:37.406Z,24.53
2019-03-16T05:27:08.558Z,25.80
2019-03-16T05:29:39.388Z,24.30
2019-03-16T05:32:10.035Z,25.57
2019-03-16T05:34:40.819Z,26.73
2019-03-16T05:37:11.615Z,25.27
2019-03-16T05:39:42.379Z,19.33
2019-03-16T05:42:13.971Z,20.47
2019-03-16T05:44:44.715Z,23.67
2019-03-16T05:47:15.336Z,24.27
2019-03-16T05:49:52.941Z,23.17
2019-03-16T05:52:23.597Z,18.97
2019-03-16T05:54:54.489Z,18.93
2019-03-16T05:57:25.126Z,23.23
2019-03-16T05:59:59.904Z,24.53
2019-03-16T06:02:30.601Z,22.13
2019-03-16T06:05:10.346Z,20.13
2019-03-16T06:07:33.761Z,20.80
2019-03-16T06:10:04.938Z,23.10
2019-03-16T06:12:35.627Z,21.67
2019-03-16T06:15:06.689Z,25.50
2019-03-16T06:17:37.322Z,22.07
2019-03-16T06:20:09.080Z,20.37
2019-03-16T06:22:39.723Z,20.53
2019-03-16T06:25:10.553Z,21.80
2019-03-16T06:27:41.262Z,21.00
2019-03-16T06:30:13.784Z,21.13
2019-03-16T06:32:44.462Z,20.03
2019-03-16T06:35:24.613Z,20.77
2019-03-16T06:38:29.152Z,21.83
2019-03-16T06:41:00.085Z,21.67
2019-03-16T06:43:30.718Z,20.23
2019-03-16T06:46:01.590Z,19.40
2019-03-16T06:48:32.196Z,23.00
2019-03-16T06:51:11.072Z,22.33
2019-03-16T06:53:41.704Z,21.00
2019-03-16T06:56:12.632Z,21.53
2019-03-16T06:58:43.410Z,22.80
2019-03-16T07:01:14.559Z,20.50
2019-03-16T07:03:45.452Z,19.30
2019-03-16T07:06:16.225Z,20.30
2019-03-16T07:08:53.102Z,20.27
2019-03-16T07:11:23.907Z,18.07
2019-03-16T07:13:55.094Z,18.97
2019-03-16T07:16:25.817Z,18.17
2019-03-16T07:18:58.986Z,17.80
2019-03-16T07:21:29.848Z,20.27
2019-03-16T07:24:00.556Z,20.40
2019-03-16T07:26:31.457Z,17.87
2019-03-16T07:29:02.704Z,20.80
2019-03-16T07:31:33.553Z,18.92
2019-03-16T07:34:04.949Z,18.77
2019-03-16T07:36:36.277Z,18.00
2019-03-16T07:39:08.200Z,17.20
2019-03-16T07:41:38.312Z,16.40
2019-03-16T07:44:09.002Z,15.70
2019-03-16T07:46:39.966Z,14.63
2019-03-16T07:49:10.853Z,17.83
2019-03-16T07:51:41.741Z,14.43
2019-03-16T07:54:12.554Z,14.00
2019-03-16T07:56:47.239Z,11.17
2019-03-16T07:59:18.087Z,12.17
2019-03-16T08:01:48.951Z,13.87
2019-03-16T08:04:19.761Z,11.67
2019-03-16T08:06:50.629Z,11.40
2019-03-16T08:09:21.962Z,12.60
2019-03-16T08:11:53.289Z,13.60
2019-03-16T08:14:24.432Z,12.03
2019-03-16T08:16:55.406Z,10.80
2019-03-16T08:19:26.393Z,10.97
2019-03-16T08:21:57.366Z,12.50
2019-03-16T08:24:28.708Z,13.20
2019-03-16T08:26:59.970Z,15.60
2019-03-16T08:29:40.134Z,14.60
2019-03-16T08:32:11.308Z,14.90
2019-03-16T08:34:42.396Z,16.67
2019-03-16T08:37:33.487Z,15.97
2019-03-16T08:40:05.696Z,16.43
2019-03-16T08:42:36.518Z,16.10
2019-03-16T08:45:07.643Z,16.63
2019-03-16T08:47:38.435Z,17.50
2019-03-16T08:50:09.386Z,15.90
2019-03-16T08:52:40.248Z,25.67
2019-03-16T08:55:11.619Z,17.27
2019-03-16T08:57:42.750Z,17.50
2019-03-16T09:00:13.911Z,19.20
2019-03-16T09:02:45.825Z,17.10
2019-03-16T09:05:16.594Z,19.27
2019-03-16T09:07:48.204Z,20.17
2019-03-16T09:10:19.209Z,20.73
2019-03-16T09:12:55.327Z,21.07
2019-03-16T09:15:25.286Z,19.90
2019-03-16T09:17:56.679Z,18.23
2019-03-16T09:20:35.828Z,16.80
2019-03-16T09:23:06.888Z,16.37
2019-03-16T09:25:38.656Z,18.43
2019-03-16T09:28:18.622Z,17.50
2019-03-16T09:30:41.984Z,16.23
2019-03-16T09:33:13.246Z,15.97
2019-03-16T09:35:44.077Z,14.60
2019-03-16T09:38:15.453Z,14.20
2019-03-16T09:40:47.840Z,15.13
2019-03-16T09:43:18.778Z,16.87
2019-03-16T09:45:49.594Z,15.47
2019-03-16T09:48:20.696Z,16.00
2019-03-16T09:50:51.684Z,21.87
2019-03-16T09:53:22.681Z,14.60
2019-03-16T09:55:53.748Z,24.40
2019-03-16T09:58:31.137Z,13.73
2019-03-16T10:00:57.143Z,14.50
2019-03-16T10:03:28.125Z,12.25
2019-03-16T10:05:58.871Z,13.63
2019-03-16T10:08:29.715Z,13.63
2019-03-16T10:11:00.863Z,13.83
2019-03-16T10:13:31.983Z,12.67
2019-03-16T10:16:02.983Z,13.00
2019-03-16T10:18:34.101Z,11.80
2019-03-16T10:21:05.042Z,11.03
2019-03-16T10:23:48.704Z,11.80
2019-03-16T10:26:20.110Z,11.00
2019-03-16T10:28:51.074Z,12.57
2019-03-16T10:31:21.807Z,11.20
2019-03-16T10:33:52.671Z,12.10
2019-03-16T10:37:04.777Z,12.23
2019-03-16T10:39:37.205Z,12.13
2019-03-16T10:42:08.130Z,11.53
2019-03-16T10:44:39.763Z,10.47
2019-03-16T10:47:10.554Z,10.23
2019-03-16T10:49:41.374Z,11.10
2019-03-16T10:52:12.312Z,11.40
2019-03-16T10:54:43.347Z,12.03
2019-03-16T10:57:15.344Z,13.37
2019-03-16T10:59:49.855Z,9.67
2019-03-16T11:02:20.901Z,10.23
2019-03-16T11:04:51.823Z,12.17
2019-03-16T11:07:22.499Z,11.80
2019-03-16T11:09:53.528Z,11.27
2019-03-16T11:12:24.193Z,12.30
2019-03-16T11:14:55.096Z,12.13
2019-03-16T11:17:27.186Z,12.10
2019-03-16T11:19:58.473Z,13.20
2019-03-16T11:22:29.521Z,13.67
2019-03-16T11:25:00.547Z,13.03
2019-03-16T11:27:47.849Z,12.67
2019-03-16T11:30:21.513Z,11.80
2019-03-16T11:32:52.371Z,13.10
2019-03-16T11:35:23.242Z,11.03
2019-03-16T11:37:53.979Z,12.57
2019-03-16T11:40:24.671Z,10.40
2019-03-16T11:42:55.665Z,10.73
2019-03-16T11:45:26.372Z,11.33
2019-03-16T11:47:57.091Z,10.93
2019-03-16T11:50:27.929Z,9.43
2019-03-16T11:52:58.861Z,10.20
2019-03-16T11:55:29.631Z,11.80
2019-03-16T11:58:01.717Z,10.83
2019-03-16T12:00:32.873Z,9.33
2019-03-16T12:03:03.712Z,10.23
2019-03-16T12:05:34.818Z,10.47
2019-03-16T12:08:05.924Z,10.33
2019-03-16T12:10:36.624Z,9.53
2019-03-16T12:13:16.702Z,9.57
2019-03-16T12:15:40.093Z,10.37
2019-03-16T12:18:10.901Z,8.77
2019-03-16T12:20:41.784Z,10.03
2019-03-16T12:24:17.301Z,9.60
2019-03-16T12:26:48.198Z,9.10
2019-03-16T12:29:19.283Z,8.50
2019-03-16T12:31:50.258Z,8.23
2019-03-16T12:34:21.116Z,9.13
2019-03-16T12:36:51.775Z,8.20
2019-03-16T12:39:22.499Z,7.57
2019-03-16T12:41:53.358Z,7.70
2019-03-16T12:44:24.433Z,6.60
2019-03-16T12:46:55.394Z,7.83
2019-03-16T12:49:26.267Z,7.73
2019-03-16T12:52:06.356Z,8.27
2019-03-16T12:54:37.067Z,8.30
2019-03-16T12:57:08.024Z,8.07
2019-03-16T12:59:46.705Z,7.83
2019-03-16T13:02:11.469Z,8.07
2019-03-16T13:04:42.452Z,11.77
2019-03-16T13:07:13.407Z,8.60
2019-03-16T13:09:44.424Z,10.17
2019-03-16T13:12:15.735Z,8.97
2019-03-16T13:14:46.673Z,8.97
2019-03-16T13:17:17.514Z,8.30
2019-03-16T13:19:48.314Z,7.27
2019-03-16T13:22:19.088Z,7.87
2019-03-16T13:24:50.126Z,8.23
2019-03-16T13:27:21.131Z,8.10
2019-03-16T13:29:59.054Z,8.30
2019-03-16T13:32:24.441Z,8.20
2019-03-16T13:34:55.102Z,7.20
2019-03-16T13:37:25.814Z,7.50
2019-03-16T13:39:56.516Z,7.67
2019-03-16T13:42:27.316Z,8.27
2019-03-16T13:44:57.996Z,9.20
2019-03-16T13:47:28.862Z,8.10
2019-03-16T13:49:59.753Z,7.83
2019-03-16T13:52:30.670Z,9.20
2019-03-16T13:55:01.419Z,9.67
2019-03-16T13:58:04.398Z,9.40
2019-03-16T14:00:35.245Z,7.97
2019-03-16T14:03:06.720Z,8.20
2019-03-16T14:05:37.507Z,7.90
2019-03-16T14:08:08.251Z,6.70
2019-03-16T14:10:39.317Z,7.97
2019-03-16T14:13:10.048Z,6.67
2019-03-16T14:15:40.919Z,6.60
2019-03-16T14:18:11.743Z,5.37
2019-03-16T14:20:42.656Z,6.50
2019-03-16T14:23:13.636Z,7.17
2019-03-16T14:25:44.523Z,8.27
2019-03-16T14:28:16.428Z,7.17
2019-03-16T14:30:47.120Z,6.97
2019-03-16T14:33:18.164Z,7.20
2019-03-16T14:35:48.860Z,8.50
2019-03-16T14:38:19.717Z,8.90
2019-03-16T14:40:50.424Z,7.73
2019-03-16T14:43:21.389Z,8.27
2019-03-16T14:45:54.145Z,14.30
2019-03-16T14:48:25.316Z,8.40
2019-03-16T14:50:56.218Z,8.40
2019-03-16T14:53:27.076Z,7.93
2019-03-16T14:55:57.889Z,8.63
2019-03-16T14:58:28.795Z,8.37
2019-03-16T15:00:59.632Z,7.87
2019-03-16T15:03:38.368Z,7.60
2019-03-16T15:06:09.412Z,8.00
2019-03-16T15:08:40.316Z,7.40
2019-03-16T15:11:11.363Z,8.53
2019-03-16T15:13:42.223Z,7.60
2019-03-16T15:16:14.078Z,6.90
2019-03-16T15:18:45.163Z,6.93
2019-03-16T15:21:16.157Z,7.93
2019-03-16T15:23:47.012Z,6.63
2019-03-16T15:26:17.943Z,7.40
2019-03-16T15:28:54.920Z,7.80
2019-03-16T15:31:22.728Z,7.47
2019-03-16T15:33:53.820Z,7.07
2019-03-16T15:36:24.531Z,7.17
2019-03-16T15:38:55.686Z,6.70
2019-03-16T15:41:26.488Z,7.20
2019-03-16T15:43:57.326Z,7.00
2019-03-16T15:46:28.343Z,6.63
2019-03-16T15:48:59.207Z,7.40
2019-03-16T15:51:29.904Z,6.67
2019-03-16T15:54:00.681Z,6.30
2019-03-16T15:56:31.419Z,6.00
2019-03-16T15:59:02.496Z,7.13
2019-03-16T16:01:33.226Z,5.83
2019-03-16T16:04:04.482Z,5.50
2019-03-16T16:06:41.208Z,5.70
2019-03-16T16:09:13.090Z,5.30
2019-03-16T16:11:43.890Z,5.97
2019-03-16T16:14:14.715Z,5.73
2019-03-16T16:16:45.759Z,4.80
2019-03-16T16:19:16.865Z,5.60
2019-03-16T16:21:47.549Z,5.10
2019-03-16T16:24:18.600Z,6.10
2019-03-16T16:26:49.480Z,5.23
2019-03-16T16:29:20.528Z,4.90
2019-03-16T16:31:51.918Z,5.07
2019-03-16T16:34:23.077Z,5.40
2019-03-16T16:36:53.769Z,5.20
2019-03-16T16:39:24.725Z,5.93
2019-03-16T16:41:55.656Z,5.70
2019-03-16T16:44:26.481Z,6.20
2019-03-16T16:46:57.399Z,5.30
2019-03-16T16:49:38.344Z,5.50
2019-03-16T16:52:09.562Z,5.57
2019-03-16T16:54:40.453Z,5.90
2019-03-16T16:57:11.065Z,4.67
2019-03-16T16:59:42.182Z,4.77
2019-03-16T17:02:13.031Z,5.10
2019-03-16T17:04:47.357Z,4.23
2019-03-16T17:07:18.365Z,4.27
2019-03-16T17:09:49.247Z,7.80
2019-03-16T17:12:20.037Z,4.43
2019-03-16T17:14:51.495Z,4.90
2019-03-16T17:17:34.278Z,3.63
2019-03-16T17:19:54.749Z,4.43
2019-03-16T17:22:25.639Z,6.03
2019-03-16T17:24:56.511Z,3.87
2019-03-16T17:27:27.660Z,5.40
2019-03-16T17:29:59.117Z,4.20
2019-03-16T17:32:35.738Z,4.07
2019-03-16T17:35:07.454Z,3.83
2019-03-16T17:37:38.170Z,4.40
2019-03-16T17:40:09.871Z,4.67
2019-03-16T17:42:40.798Z,7.07
2019-03-16T17:45:12.255Z,4.40
2019-03-16T17:47:43.247Z,7.03
2019-03-16T17:50:18.185Z,5.20
2019-03-16T17:52:50.225Z,4.27
2019-03-16T17:55:21.903Z,4.13
2019-03-16T17:57:52.952Z,4.67
2019-03-16T18:00:23.985Z,4.50
2019-03-16T18:02:55.130Z,4.93
2019-03-16T18:05:26.594Z,4.73
2019-03-16T18:07:57.528Z,4.93
2019-03-16T18:10:28.524Z,4.70
2019-03-16T18:12:59.164Z,4.83
2019-03-16T18:15:30.141Z,4.40
2019-03-16T18:18:01.068Z,5.40
2019-03-16T18:20:33.340Z,7.93
2019-03-16T18:23:04.189Z,6.03
2019-03-16T18:25:37.609Z,6.97
2019-03-16T18:28:08.013Z,6.43
2019-03-16T18:30:54.306Z,5.47
2019-03-16T18:33:24.532Z,5.90
2019-03-16T18:35:56.462Z,5.53
2019-03-16T18:38:27.833Z,6.00
2019-03-16T18:40:59.336Z,6.17
2019-03-16T18:43:31.871Z,7.17
2019-03-16T18:46:04.036Z,7.27
2019-03-16T18:48:35.823Z,7.42
2019-03-16T18:51:06.635Z,7.43
2019-03-16T18:53:37.644Z,7.37
2019-03-16T18:56:16.594Z,7.07
2019-03-16T18:58:47.842Z,7.57
2019-03-16T19:01:18.747Z,7.80
2019-03-16T19:03:49.538Z,9.23
2019-03-16T19:06:20.574Z,8.70
2019-03-16T19:08:52.237Z,8.30
2019-03-16T19:11:23.713Z,8.23
2019-03-16T19:13:56.039Z,9.07
2019-03-16T19:16:31.006Z,8.10
2019-03-16T19:19:02.751Z,8.87
2019-03-16T19:21:34.927Z,10.23
2019-03-16T19:24:06.485Z,10.00
2019-03-16T19:26:37.879Z,11.50
2019-03-16T19:29:09.585Z,10.60
2019-03-16T19:31:40.483Z,11.10
2019-03-16T19:34:12.489Z,13.17
2019-03-16T19:36:43.786Z,11.07
2019-03-16T19:39:38.695Z,11.37
2019-03-16T19:42:13.360Z,13.00
2019-03-16T19:44:44.448Z,11.40
2019-03-16T19:47:15.624Z,11.10
2019-03-16T19:49:49.967Z,9.40
2019-03-16T19:52:24.106Z,11.33
2019-03-16T19:54:57.582Z,12.63
2019-03-16T19:57:28.800Z,12.97
2019-03-16T20:00:00.394Z,10.90
2019-03-16T20:02:32.511Z,11.37
2019-03-16T20:05:04.156Z,14.43
2019-03-16T20:07:39.646Z,16.57
2019-03-16T20:10:12.032Z,13.53
2019-03-16T20:12:49.350Z,14.37
2019-03-16T20:15:22.310Z,15.40
2019-03-16T20:17:56.033Z,14.27
2019-03-16T20:21:09.620Z,12.18
2019-03-16T20:27:37.283Z,12.10
2019-03-16T20:30:10.204Z,11.37
2019-03-16T20:32:41.597Z,13.23
2019-03-16T20:35:14.593Z,10.70
2019-03-16T20:37:46.152Z,10.13
2019-03-16T20:40:20.374Z,11.00
2019-03-16T20:42:52.226Z,9.27
2019-03-16T20:45:23.591Z,10.87
2019-03-16T20:47:54.410Z,10.70
2019-03-16T20:50:26.305Z,11.37
2019-03-16T20:52:57.415Z,12.43
2019-03-16T20:55:28.467Z,11.97
2019-03-16T20:58:01.772Z,11.70
2019-03-16T21:00:35.282Z,12.07
2019-03-16T21:03:16.103Z,12.67
2019-03-16T21:05:41.019Z,14.70
2019-03-16T21:08:12.185Z,14.27
2019-03-16T21:10:43.076Z,14.20
2019-03-16T21:13:14.023Z,24.97
2019-03-16T21:15:46.140Z,18.20
2019-03-16T21:18:20.345Z,15.90
2019-03-16T21:20:56.998Z,15.63
2019-03-16T21:23:35.851Z,15.33
2019-03-16T21:26:09.033Z,14.10
2019-03-16T21:28:40.010Z,14.57
2019-03-16T21:31:19.719Z,15.40
2019-03-16T21:33:52.574Z,15.40
2019-03-16T21:36:23.515Z,14.70
2019-03-16T21:38:55.376Z,17.40
2019-03-16T21:41:28.606Z,17.50
2019-03-16T21:44:00.564Z,16.23
2019-03-16T21:46:32.959Z,14.77
2019-03-16T21:49:06.135Z,16.13
2019-03-16T21:51:40.059Z,15.47
2019-03-16T21:54:14.596Z,16.93
2019-03-16T21:56:47.025Z,16.47
2019-03-16T21:59:21.146Z,16.07
2019-03-16T22:01:54.742Z,17.10
2019-03-16T22:04:26.138Z,21.63
2019-03-16T22:06:57.279Z,21.37
2019-03-16T22:09:28.863Z,23.32
2019-03-16T22:11:59.903Z,21.20
2019-03-16T22:14:31.452Z,21.23
2019-03-16T22:17:02.606Z,18.40
2019-03-16T22:19:33.569Z,20.70
2019-03-16T22:22:07.449Z,19.07
2019-03-16T22:24:40.662Z,19.80
2019-03-16T22:27:16.527Z,19.63
2019-03-16T22:29:50.263Z,19.13
2019-03-16T22:32:22.040Z,17.97
2019-03-16T22:34:57.870Z,19.53
2019-03-16T22:37:31.220Z,17.67
2019-03-16T22:40:03.947Z,18.00
2019-03-16T22:42:34.851Z,18.40
2019-03-16T22:45:06.067Z,20.10
2019-03-16T22:47:36.937Z,17.00
2019-03-16T22:50:07.959Z,16.80
2019-03-16T22:52:39.261Z,19.33
2019-03-16T22:55:16.154Z,19.03
2019-03-16T22:57:59.904Z,19.03
2019-03-16T23:00:48.356Z,21.00
2019-03-16T23:03:24.042Z,20.47
2019-03-16T23:05:55.674Z,21.83
2019-03-16T23:08:28.339Z,21.62
2019-03-16T23:11:00.558Z,19.57
2019-03-16T23:13:32.791Z,20.30
2019-03-16T23:16:10.099Z,20.90
2019-03-16T23:18:40.944Z,19.70
2019-03-16T23:21:12.177Z,19.30
2019-03-16T23:23:44.098Z,20.90
2019-03-16T23:26:15.051Z,20.43
2019-03-16T23:28:45.816Z,22.40
2019-03-16T23:31:18.420Z,22.10
2019-03-16T23:33:53.000Z,19.07
2019-03-16T23:36:25.475Z,19.30
2019-03-16T23:38:56.257Z,17.00
2019-03-16T23:41:27.434Z,16.73
2019-03-16T23:43:58.190Z,15.10
2019-03-16T23:46:29.172Z,13.60
2019-03-16T23:49:03.344Z,13.60
2019-03-16T23:51:41.013Z,15.03
2019-03-16T23:54:13.070Z,15.90
2019-03-16T23:56:44.211Z,21.93
2019-03-16T23:59:15.060Z,16.77
